CanjetBLOCKVirtuelBLOCKQcBLOCKBLOCKBLOCKBLOCKBLOCKBLOCKBLOCKBLOCKBLOCKBLOCKBLOCKvolsBLOCKavecBLOCKFS-kACARS2019-07-16BLOCK05colon05pm

volsBLOCKBLOCKBLOCKBLOCKBLOCKpilotesBLOCKBLOCKBLOCKBLOCKBLOCKBLOCKBLOCKBLOCKtypeBLOCKBLOCKdepBLOCKBLOCKarrBLOCKBLOCKBLOCKBLOCKBLOCKaltBLOCKBLOCKBLOCKBLOCKBLOCKgsBLOCKBLOCKBLOCKBLOCKstatut

cja9999LouisBLOCKMB738KJAC-KTEX0ft0ktsarrived
CJA8696StephaneBLOCKGB738CYUL-CYZV197ft122ktsarrived









BLOCKAppuyerBLOCKsurBLOCKF5BLOCKpourBLOCKactualiserBLOCKBLOCKBLOCKMiseBLOCKaBLOCKjourcolonBLOCK17colon05colon31pmCanjetBLOCKvirtuelBLOCKQC

737 MAX de retour en 2020

Publié par Yvan Roy le 2019-07-16

 

 

                                                    

 

  


Microsoft flight sim 2020

Publié par Yvan Roy le 2019-06-25

 

Microsoft flight simulator 2020 encore plus fort sera disponible pour votre PC au début 2020 .

 


 

                                                   

 


 

  


Bienvenue chez Canjetvirtuel-Q

Publié par Michel Ayotte le 2013-06-14

 

Canjetvirtuel-Québec est une compagnie aérienne virtuelle qui a été fondée par 2 passionnés de la simulation de vol.

Elle est opérée avec les Boeing 737. Exceptionnelement et pour votre plaisir les Boeing 747,757,767 et 777 sont autorisés pour des vols de plus de 1,5 heure.

Ces appareils pouvant faire des vols cargos ou des vols passagers,que ce soit au Canada, Europe, États-Unis, Mexique et Caraïbes.

Vous trouverez votre place comme pilote chez nous!



Avis

Aux fins de la simulation de vol seulement. CanjetVirtuel Québec n'est en aucun cas affilié avec n'importe quelle compagnie aérienne du monde réel. CanjetVirtuel Québec est un site à but non lucratif gérée par des amateurs de simulation de vol. Toutes les images sont la propriété exclusive de leurs propriétaires respectifs.
| propulsé par phpVMS, © 2013-2019.

Notice

For flight simulation purposes only. CanjetVirtuel Quebec is in no way affiliated with any real world airline. CanjetVirtuel Quebec is a non-profit site run by flight simulation enthusiasts. All images are the sole property of their respective owners.
| powered by phpVMS, © 2013-2019.

Affiliations

Vatsim

Les statistiques du site

Nombre de pilotes: 14
Total des vols effectués: 4597
Trajets disponibles: 543
Passagers transportés: 957394
Total des heures de vol: 13723
Distance totale (NM): 5734629
Pilotes en ligne: 1

METAR

CYHZ 162000Z 27006KT 250V040 15SM FEW064 OVC260 28/11 A2996 RMK CU1CS7 SLP146 DENSITY ALT 2000FT

CYQB 162052Z VRB02KT 7SM -SHRA BKN053 OVC063 20/18 A2986 RMK SC6SC2 CVCTV CLD EMBD PRESFR SLP113 DENSITY ALT 1000FT

CYUL 162000Z 21009KT 30SM FEW050 FEW088 BKN160 BKN250 28/20 A2984 RMK CF1AC2AC3CI2 CF TR SLP106 DENSITY ALT 1800FT

CYYZ 162018Z 23011G19KT 15SM FEW015 FEW030 SCT035 BKN085 27/23 A2994 RMK CF1SC2CU1AC4 CF TR SLP137 DENSITY ALT 2100FT